Time;durP1;ratioP1;P1;durP2;ratioP2;P2;SDS_P1;SDS_P2;PMS_P1;PMS_P2;Temp;Humidity;BMP_temperature;BMP_pressure;BME280_temperature;BME280_humidity;BME280_pressure;Samples;Min_cycle;Max_cycle;Signal;HPM_P1;HPM_P2
2023/10/04 00:01:00;;;;;;;2.08;1.50;;;22.50;53.80;;;;;;5107029;27;45320;-70
2023/10/04 00:03:28;;;;;;;2.03;1.40;;;22.50;53.20;;;;;;5106711;27;45265;-69
2023/10/04 00:05:55;;;;;;;3.38;1.25;;;22.50;53.20;;;;;;5107394;27;45441;-69
2023/10/04 00:08:23;;;;;;;4.97;1.35;;;22.50;53.20;;;;;;5105531;27;46393;-70
2023/10/04 00:10:50;;;;;;;1.70;1.13;;;22.50;53.20;;;;;;5106797;27;45371;-70
2023/10/04 00:13:17;;;;;;;1.45;1.20;;;22.50;53.20;;;;;;5107339;27;45333;-70
2023/10/04 00:15:44;;;;;;;1.85;1.30;;;22.40;53.10;;;;;;5106816;27;45484;-69
2023/10/04 00:18:11;;;;;;;1.20;1.02;;;22.40;53.20;;;;;;5106238;27;46620;-70
2023/10/04 00:20:40;;;;;;;1.58;1.00;;;22.40;53.20;;;;;;5106834;27;45272;-69
2023/10/04 00:23:07;;;;;;;1.55;1.15;;;22.40;53.20;;;;;;5106981;27;45324;-69
2023/10/04 00:25:35;;;;;;;1.75;1.30;;;22.40;53.20;;;;;;5106902;27;45477;-70
2023/10/04 00:28:02;;;;;;;1.17;0.93;;;22.40;53.20;;;;;;5106299;27;46586;-70
2023/10/04 00:30:30;;;;;;;1.38;0.90;;;22.30;53.20;;;;;;5106298;27;45344;-70
2023/10/04 00:32:58;;;;;;;1.83;1.20;;;22.30;53.40;;;;;;5106887;27;45250;-70
2023/10/04 00:35:25;;;;;;;1.15;1.05;;;22.30;53.20;;;;;;5106985;27;45451;-70
2023/10/04 00:37:56;;;;;;;1.60;1.20;;;22.30;53.80;;;;;;5106597;27;45313;-70
2023/10/04 00:40:24;;;;;;;1.13;1.00;;;22.20;53.20;;;;;;5106335;27;45410;-70
2023/10/04 00:42:51;;;;;;;1.67;1.02;;;22.20;53.10;;;;;;5106410;27;45393;-69
2023/10/04 00:45:20;;;;;;;1.42;1.10;;;22.20;53.20;;;;;;5106156;27;45327;-70
2023/10/04 00:47:48;;;;;;;1.02;0.70;;;22.20;53.20;;;;;;5106189;27;46396;-69
2023/10/04 00:50:16;;;;;;;1.52;0.85;;;22.20;53.20;;;;;;5107078;27;45377;-70
2023/10/04 00:52:45;;;;;;;1.23;1.13;;;22.20;53.20;;;;;;5107021;27;45318;-70
2023/10/04 00:55:15;;;;;;;1.20;1.00;;;22.10;53.20;;;;;;5106478;27;45263;-69
2023/10/04 00:57:42;;;;;;;3.17;1.20;;;22.10;53.20;;;;;;5106082;27;45286;-68
2023/10/04 01:00:11;;;;;;;1.70;1.20;;;22.10;53.20;;;;;;5106935;27;45268;-69
2023/10/04 01:02:39;;;;;;;1.60;0.80;;;22.10;53.20;;;;;;5107172;27;45370;-70
2023/10/04 01:05:07;;;;;;;2.78;1.00;;;22.10;53.80;;;;;;5106888;27;45382;-70
2023/10/04 01:07:37;;;;;;;1.85;1.15;;;22.10;53.20;;;;;;5106343;27;46451;-69
2023/10/04 01:10:06;;;;;;;0.70;0.70;;;22.00;53.20;;;;;;5106491;27;45509;-70
2023/10/04 01:12:35;;;;;;;2.28;1.00;;;22.00;53.20;;;;;;5106601;27;45276;-70
2023/10/04 01:15:21;;;;;;;1.20;1.00;;;22.00;53.20;;;;;;5106980;27;45491;-69
2023/10/04 01:17:48;;;;;;;1.95;1.17;;;22.00;53.20;;;;;;5106409;27;45312;-70
2023/10/04 01:20:16;;;;;;;1.75;1.00;;;22.00;53.20;;;;;;5108709;27;45393;-69
2023/10/04 01:22:44;;;;;;;0.90;0.80;;;22.00;53.20;;;;;;5110033;27;45359;-69
2023/10/04 01:25:12;;;;;;;1.05;0.90;;;22.00;53.20;;;;;;5110400;27;45509;-70
2023/10/04 01:27:41;;;;;;;1.65;1.08;;;22.00;53.30;;;;;;5109839;27;46434;-69
2023/10/04 01:30:13;;;;;;;1.20;1.00;;;22.00;53.30;;;;;;5109858;27;44756;-69
2023/10/04 01:32:40;;;;;;;1.45;0.90;;;21.90;53.30;;;;;;5110242;27;45316;-69
2023/10/04 01:35:08;;;;;;;0.98;0.90;;;21.90;53.30;;;;;;5109923;27;45407;-69
2023/10/04 01:37:39;;;;;;;1.45;1.00;;;21.90;53.30;;;;;;5109991;27;46265;-69
2023/10/04 01:40:12;;;;;;;0.95;0.85;;;21.90;53.30;;;;;;5109927;27;45422;-69
2023/10/04 01:42:41;;;;;;;1.17;1.00;;;21.90;53.30;;;;;;5110090;27;45308;-70
2023/10/04 01:45:11;;;;;;;1.10;1.00;;;21.90;53.30;;;;;;5110101;27;45479;-70
2023/10/04 01:47:39;;;;;;;1.05;0.80;;;21.90;53.40;;;;;;5109404;27;46622;-71
2023/10/04 01:50:09;;;;;;;1.50;1.00;;;21.90;53.40;;;;;;5109717;27;45292;-70
2023/10/04 01:52:36;;;;;;;1.20;0.80;;;21.90;53.40;;;;;;5109994;27;45239;-70
2023/10/04 01:55:05;;;;;;;1.58;1.13;;;21.90;53.40;;;;;;5109419;27;45327;-70
2023/10/04 01:57:34;;;;;;;1.25;0.82;;;21.80;53.40;;;;;;5109023;27;46267;-70
2023/10/04 02:00:01;;;;;;;1.13;0.90;;;21.80;53.40;;;;;;5109486;27;45256;-70
2023/10/04 02:02:28;;;;;;;1.67;0.80;;;21.80;53.40;;;;;;5109670;27;45312;-70
2023/10/04 02:04:55;;;;;;;2.20;0.90;;;21.80;53.40;;;;;;5109790;27;45353;-70
2023/10/04 02:07:23;;;;;;;1.00;0.90;;;21.80;53.40;;;;;;5109601;27;45712;-70
2023/10/04 02:09:51;;;;;;;0.95;0.90;;;21.80;53.40;;;;;;5109382;27;45358;-70
2023/10/04 02:12:19;;;;;;;2.35;1.10;;;21.80;53.40;;;;;;5109706;27;45320;-70
2023/10/04 02:14:48;;;;;;;1.77;1.10;;;21.80;53.50;;;;;;5109831;27;45350;-69
2023/10/04 02:17:16;;;;;;;1.60;0.80;;;21.80;53.40;;;;;;5109375;27;46478;-70
2023/10/04 02:19:43;;;;;;;1.30;0.93;;;21.80;53.50;;;;;;5109718;27;45320;-70
2023/10/04 02:22:12;;;;;;;0.75;0.75;;;21.80;53.40;;;;;;5109445;27;45294;-71
2023/10/04 02:24:39;;;;;;;1.23;0.77;;;21.80;53.50;;;;;;5109657;27;45369;-69
2023/10/04 02:27:07;;;;;;;1.40;1.02;;;21.80;53.50;;;;;;5109205;27;45240;-69
2023/10/04 02:29:34;;;;;;;2.88;0.90;;;21.70;53.40;;;;;;5108874;27;45278;-69
2023/10/04 02:32:08;;;;;;;3.42;1.10;;;21.70;53.40;;;;;;5108252;27;45338;-69
2023/10/04 02:34:35;;;;;;;0.95;0.93;;;21.70;53.40;;;;;;5109144;27;45389;-70
2023/10/04 02:37:06;;;;;;;1.85;1.10;;;21.70;53.40;;;;;;5108805;27;45398;-71
2023/10/04 02:39:33;;;;;;;1.50;1.08;;;21.70;53.40;;;;;;5109164;27;45261;-69
2023/10/04 02:42:00;;;;;;;0.85;0.80;;;21.70;53.40;;;;;;5109107;27;45381;-70
2023/10/04 02:44:27;;;;;;;1.33;0.95;;;21.70;53.50;;;;;;5108957;27;45339;-68
2023/10/04 02:46:54;;;;;;;1.42;0.98;;;21.70;53.40;;;;;;5105473;27;46540;-69
2023/10/04 02:49:23;;;;;;;1.08;0.90;;;21.70;53.40;;;;;;5108200;27;45301;-70
2023/10/04 02:51:50;;;;;;;1.08;0.90;;;21.70;53.50;;;;;;5109321;27;45408;-71
2023/10/04 02:54:17;;;;;;;2.00;0.85;;;21.70;53.40;;;;;;5108967;27;45385;-70
2023/10/04 02:56:46;;;;;;;1.35;1.02;;;21.70;53.40;;;;;;5109004;27;46659;-70
2023/10/04 02:59:24;;;;;;;1.73;0.80;;;21.60;53.40;;;;;;5108869;27;45592;-71
2023/10/04 03:01:51;;;;;;;1.75;0.73;;;21.60;53.50;;;;;;5108925;27;45384;-71
2023/10/04 03:04:18;;;;;;;0.80;0.80;;;21.60;53.40;;;;;;5108715;27;45389;-71
2023/10/04 03:06:47;;;;;;;1.05;0.57;;;21.60;53.40;;;;;;5108379;27;45457;-71
2023/10/04 03:09:14;;;;;;;1.08;0.98;;;21.60;53.50;;;;;;5108506;27;45391;-71
2023/10/04 03:11:42;;;;;;;1.73;0.75;;;21.60;53.40;;;;;;5108577;27;45321;-70
2023/10/04 03:14:11;;;;;;;0.70;0.70;;;21.60;53.50;;;;;;5108523;27;45494;-70
2023/10/04 03:16:40;;;;;;;1.83;1.02;;;21.60;54.10;;;;;;5108702;27;47283;-70
2023/10/04 03:19:07;;;;;;;2.58;1.13;;;21.60;53.50;;;;;;5108498;27;45299;-70
2023/10/04 03:21:34;;;;;;;0.85;0.85;;;21.60;53.50;;;;;;5108723;27;45405;-70
2023/10/04 03:24:06;;;;;;;1.00;0.88;;;21.60;53.50;;;;;;5108595;27;45303;-70
2023/10/04 03:26:33;;;;;;;1.17;0.70;;;21.50;53.40;;;;;;5108424;27;45383;-70
2023/10/04 03:29:00;;;;;;;0.73;0.70;;;21.50;53.40;;;;;;5108156;27;45415;-70
2023/10/04 03:31:27;;;;;;;0.80;0.70;;;21.50;54.00;;;;;;5108202;27;45253;-70
2023/10/04 03:33:55;;;;;;;1.63;0.93;;;21.50;53.40;;;;;;5108154;27;45636;-70
2023/10/04 03:36:25;;;;;;;1.38;0.90;;;21.50;53.40;;;;;;5107913;27;46711;-70
2023/10/04 03:38:51;;;;;;;0.93;0.80;;;21.50;53.40;;;;;;5107550;27;45329;-69
2023/10/04 03:41:20;;;;;;;0.95;0.77;;;21.50;53.40;;;;;;5107646;27;45295;-69
2023/10/04 03:43:47;;;;;;;1.10;0.90;;;21.50;53.40;;;;;;5108149;27;45384;-69
2023/10/04 03:46:18;;;;;;;1.10;0.98;;;21.50;53.50;;;;;;5107858;27;48569;-69
2023/10/04 03:48:45;;;;;;;0.68;0.68;;;21.50;53.40;;;;;;5107714;27;45310;-69
2023/10/04 03:51:13;;;;;;;1.15;0.82;;;21.50;53.40;;;;;;5108514;27;45406;-69
2023/10/04 03:53:42;;;;;;;1.15;1.05;;;21.40;53.40;;;;;;5108963;27;45517;-70
2023/10/04 03:56:10;;;;;;;1.67;0.93;;;21.40;53.40;;;;;;5107889;27;45495;-69
2023/10/04 03:58:39;;;;;;;1.80;0.90;;;21.40;53.50;;;;;;5107609;27;45370;-70
2023/10/04 04:01:07;;;;;;;0.88;0.80;;;21.40;53.40;;;;;;5107813;27;45394;-69
2023/10/04 04:03:34;;;;;;;1.60;1.00;;;21.40;53.40;;;;;;5107803;27;45307;-69
2023/10/04 04:06:01;;;;;;;1.10;0.68;;;21.40;53.40;;;;;;5107496;27;46263;-70
2023/10/04 04:08:28;;;;;;;2.10;0.70;;;21.40;53.40;;;;;;5107764;27;45275;-69
2023/10/04 04:10:55;;;;;;;1.98;1.00;;;21.30;53.40;;;;;;5107527;27;45316;-70
2023/10/04 04:13:23;;;;;;;1.10;0.50;;;21.30;53.40;;;;;;5107782;27;45304;-70
2023/10/04 04:15:52;;;;;;;1.95;0.85;;;21.30;53.40;;;;;;5107470;27;45551;-70
2023/10/04 04:18:21;;;;;;;1.67;0.93;;;21.30;53.40;;;;;;5107451;27;45229;-71
2023/10/04 04:20:48;;;;;;;1.50;0.80;;;21.30;53.40;;;;;;5107355;27;45268;-70
2023/10/04 04:23:15;;;;;;;1.80;0.90;;;21.30;53.40;;;;;;5107758;27;45372;-70
2023/10/04 04:25:43;;;;;;;1.15;0.90;;;21.30;53.50;;;;;;5107743;27;47001;-70
2023/10/04 04:28:24;;;;;;;1.80;0.75;;;21.30;53.40;;;;;;5106753;27;45595;-70
2023/10/04 04:30:53;;;;;;;0.90;0.80;;;21.20;53.40;;;;;;5107161;27;45398;-71
2023/10/04 04:33:26;;;;;;;1.30;0.88;;;21.20;53.40;;;;;;5106804;27;45406;-70
2023/10/04 04:36:00;;;;;;;1.70;0.80;;;21.20;53.40;;;;;;5106654;27;45415;-70
2023/10/04 04:38:29;;;;;;;1.70;0.95;;;21.20;53.40;;;;;;5106571;27;45367;-70
2023/10/04 04:40:56;;;;;;;0.88;0.80;;;21.20;53.40;;;;;;5107353;27;45305;-70
2023/10/04 04:43:35;;;;;;;2.65;0.90;;;21.20;53.40;;;;;;5107224;27;45435;-70
2023/10/04 04:46:08;;;;;;;1.13;0.70;;;21.10;53.40;;;;;;5107071;27;46926;-70
2023/10/04 04:48:36;;;;;;;1.05;0.75;;;21.10;53.40;;;;;;5107256;27;45231;-68
2023/10/04 04:51:06;;;;;;;1.25;0.88;;;21.10;53.90;;;;;;5107435;27;45372;-70
2023/10/04 04:53:33;;;;;;;1.42;0.90;;;21.10;53.40;;;;;;5107026;27;45338;-70
2023/10/04 04:56:00;;;;;;;1.50;0.85;;;21.10;53.40;;;;;;5106948;27;46254;-70
2023/10/04 04:58:33;;;;;;;1.38;0.80;;;21.10;53.40;;;;;;5106969;27;45377;-70
2023/10/04 05:01:02;;;;;;;1.25;1.02;;;21.10;53.40;;;;;;5107165;27;45229;-70
2023/10/04 05:03:31;;;;;;;0.90;0.80;;;21.10;53.40;;;;;;5107387;27;45319;-70
2023/10/04 05:05:58;;;;;;;0.90;0.90;;;21.00;53.40;;;;;;5106619;27;45477;-70
2023/10/04 05:08:25;;;;;;;1.17;1.00;;;21.00;53.30;;;;;;5106934;27;45215;-70
2023/10/04 05:10:54;;;;;;;0.93;0.90;;;21.00;53.40;;;;;;5106713;27;45461;-70
2023/10/04 05:13:21;;;;;;;0.80;0.80;;;21.00;53.30;;;;;;5107129;27;45632;-70
2023/10/04 05:15:49;;;;;;;0.77;0.70;;;21.00;53.30;;;;;;5108205;27;45288;-69
2023/10/04 05:18:16;;;;;;;0.80;0.77;;;21.00;53.30;;;;;;5106925;27;45378;-70
2023/10/04 05:20:45;;;;;;;0.85;0.70;;;21.00;53.30;;;;;;5104117;27;45303;-70
2023/10/04 05:23:12;;;;;;;0.75;0.75;;;21.00;53.40;;;;;;5106740;27;45423;-70
2023/10/04 05:25:38;;;;;;;1.90;0.93;;;21.00;53.40;;;;;;5106517;27;46669;-70
2023/10/04 05:28:06;;;;;;;1.00;0.80;;;21.00;53.40;;;;;;5106380;27;45337;-70
2023/10/04 05:30:33;;;;;;;0.75;0.75;;;20.90;53.40;;;;;;5105779;27;45424;-68
2023/10/04 05:33:01;;;;;;;1.50;1.10;;;20.90;53.40;;;;;;5106158;27;45472;-68
2023/10/04 05:35:28;;;;;;;1.00;0.90;;;20.90;53.40;;;;;;5106336;27;46710;-70
2023/10/04 05:37:56;;;;;;;1.42;0.90;;;20.90;53.40;;;;;;5106615;27;45575;-68
2023/10/04 05:40:27;;;;;;;1.10;1.00;;;20.90;53.40;;;;;;5106760;27;45243;-68
2023/10/04 05:42:54;;;;;;;1.08;0.98;;;20.90;53.40;;;;;;5106548;27;45580;-68
2023/10/04 05:45:21;;;;;;;1.33;1.10;;;20.90;53.40;;;;;;5106383;27;46366;-68
2023/10/04 05:47:50;;;;;;;1.13;1.02;;;20.90;53.40;;;;;;5106763;27;45340;-71
2023/10/04 05:50:18;;;;;;;1.75;0.80;;;20.80;53.40;;;;;;5106849;27;45230;-70
2023/10/04 05:52:45;;;;;;;1.67;0.90;;;20.90;53.50;;;;;;5107012;27;45261;-72
2023/10/04 05:55:16;;;;;;;3.65;1.00;;;20.80;53.40;;;;;;5106149;27;46263;-69
2023/10/04 05:57:45;;;;;;;1.50;0.98;;;20.80;53.40;;;;;;5106560;27;45354;-69
2023/10/04 06:00:23;;;;;;;1.20;1.10;;;20.80;53.40;;;;;;5107104;27;45559;-70
2023/10/04 06:02:53;;;;;;;2.00;0.95;;;20.80;53.40;;;;;;5106769;27;45305;-69
2023/10/04 06:05:27;;;;;;;1.35;0.90;;;20.80;53.40;;;;;;5106000;27;46290;-70
2023/10/04 06:07:54;;;;;;;1.63;0.88;;;20.80;53.40;;;;;;5109656;27;45324;-70
2023/10/04 06:10:24;;;;;;;1.13;1.02;;;20.70;53.40;;;;;;5110255;27;45326;-69
2023/10/04 06:12:53;;;;;;;1.15;0.85;;;20.70;53.40;;;;;;5110335;27;45312;-70
2023/10/04 06:15:24;;;;;;;1.30;1.02;;;20.70;53.30;;;;;;5109753;27;48287;-69
2023/10/04 06:17:52;;;;;;;0.90;0.85;;;20.70;53.40;;;;;;5109722;27;44844;-70
2023/10/04 06:20:28;;;;;;;1.25;1.02;;;20.70;53.40;;;;;;5110202;27;45363;-69
2023/10/04 06:22:56;;;;;;;2.05;1.10;;;20.70;53.40;;;;;;5110226;27;45310;-70
2023/10/04 06:25:25;;;;;;;1.58;0.95;;;20.70;53.40;;;;;;5110774;27;45445;-69
2023/10/04 06:27:56;;;;;;;0.93;0.82;;;20.70;53.40;;;;;;5109548;27;45321;-70
2023/10/04 06:30:24;;;;;;;1.58;0.80;;;20.70;53.40;;;;;;5109360;27;45320;-69
2023/10/04 06:32:52;;;;;;;1.08;0.90;;;20.70;53.40;;;;;;5109482;27;45350;-69
2023/10/04 06:35:22;;;;;;;1.10;1.00;;;20.70;53.40;;;;;;5109216;27;45281;-73
2023/10/04 06:37:50;;;;;;;1.45;1.20;;;20.70;54.00;;;;;;5110189;27;45431;-69
2023/10/04 06:40:19;;;;;;;0.80;0.80;;;20.70;53.40;;;;;;5130866;27;45434;-69
2023/10/04 06:42:48;;;;;;;0.95;0.90;;;20.70;53.30;;;;;;5124819;27;45192;-69
2023/10/04 06:45:16;;;;;;;2.60;1.00;;;20.70;53.30;;;;;;5110141;27;46587;-70
2023/10/04 06:47:44;;;;;;;1.42;1.05;;;20.70;53.30;;;;;;5109781;27;45332;-69
2023/10/04 06:50:14;;;;;;;1.08;0.88;;;20.70;53.20;;;;;;5110018;27;45155;-70
2023/10/04 06:52:43;;;;;;;1.42;0.90;;;20.70;53.20;;;;;;5110324;27;45415;-69
2023/10/04 06:55:11;;;;;;;1.27;0.85;;;20.80;53.20;;;;;;5109783;27;45472;-69
2023/10/04 06:57:41;;;;;;;2.17;1.10;;;20.70;53.20;;;;;;5109697;27;45441;-69
2023/10/04 07:00:16;;;;;;;1.23;0.90;;;20.80;53.30;;;;;;5109858;27;45291;-69
2023/10/04 07:02:44;;;;;;;1.35;0.90;;;20.80;53.20;;;;;;5110001;27;45131;-69
2023/10/04 07:05:13;;;;;;;1.88;1.08;;;20.80;53.20;;;;;;5109352;27;46700;-70
2023/10/04 07:07:40;;;;;;;1.35;1.05;;;20.80;53.20;;;;;;5109498;27;45241;-69
2023/10/04 07:10:08;;;;;;;1.42;0.90;;;20.80;53.20;;;;;;5109769;27;45472;-69
2023/10/04 07:12:37;;;;;;;1.30;1.10;;;20.80;53.20;;;;;;5109721;27;45208;-69
2023/10/04 07:15:06;;;;;;;1.42;1.10;;;20.80;53.20;;;;;;5109407;27;46785;-69
2023/10/04 07:17:34;;;;;;;1.48;0.93;;;20.80;53.20;;;;;;5108782;27;45204;-69
2023/10/04 07:20:01;;;;;;;1.58;1.10;;;20.80;53.20;;;;;;5109833;27;45198;-69
2023/10/04 07:22:32;;;;;;;1.55;1.25;;;20.80;53.20;;;;;;5109777;27;45364;-69
2023/10/04 07:24:59;;;;;;;1.25;0.98;;;20.80;53.20;;;;;;5108999;27;45628;-69
2023/10/04 07:27:26;;;;;;;2.97;1.20;;;20.80;53.20;;;;;;5108818;27;45199;-69
2023/10/04 07:29:54;;;;;;;1.00;0.90;;;20.80;53.20;;;;;;5109051;27;45448;-70
2023/10/04 07:32:21;;;;;;;2.72;0.95;;;20.80;53.30;;;;;;5109657;27;44797;-70
2023/10/04 07:34:49;;;;;;;1.23;0.90;;;20.80;53.20;;;;;;5106337;27;46226;-69
2023/10/04 07:37:16;;;;;;;2.05;1.23;;;20.80;53.10;;;;;;5108845;27;45208;-70
2023/10/04 07:39:43;;;;;;;1.10;0.90;;;20.80;53.20;;;;;;5108946;27;45298;-70
2023/10/04 07:42:11;;;;;;;1.15;1.05;;;20.80;53.20;;;;;;5108815;27;45205;-70
2023/10/04 07:44:38;;;;;;;1.27;1.00;;;20.80;53.20;;;;;;5108440;27;46271;-70
2023/10/04 07:47:05;;;;;;;4.47;1.08;;;20.80;53.30;;;;;;5108853;27;45234;-69
2023/10/04 07:49:32;;;;;;;1.35;1.20;;;20.80;53.30;;;;;;5108806;27;45228;-70
2023/10/04 07:52:03;;;;;;;1.20;1.00;;;20.80;53.20;;;;;;5108679;27;45330;-70
2023/10/04 07:54:31;;;;;;;1.60;1.15;;;20.80;53.90;;;;;;5108490;27;46657;-69
2023/10/04 07:59:41;;;;;;;1.38;1.10;;;20.90;53.20;;;;;;5101765;27;45264;-74
2023/10/04 08:02:08;;;;;;;1.60;1.50;;;20.90;53.30;;;;;;5109525;27;45195;-73
2023/10/04 08:04:35;;;;;;;1.70;0.90;;;20.90;53.20;;;;;;5108584;27;45323;-73
2023/10/04 08:07:14;;;;;;;;;;;;;;;;;;;;;
2023/10/04 08:09:41;;;;;;;1.98;1.20;;;20.90;53.40;;;;;;5107374;27;67574;-73
2023/10/04 08:12:08;;;;;;;2.55;1.05;;;20.90;53.20;;;;;;5108716;27;45490;-73
2023/10/04 08:14:35;;;;;;;1.95;1.13;;;20.90;53.30;;;;;;5108501;27;47861;-73
2023/10/04 08:17:02;;;;;;;1.20;1.10;;;20.90;53.20;;;;;;5107889;27;45432;-72
2023/10/04 08:19:29;;;;;;;5.95;1.13;;;20.90;53.20;;;;;;5107964;27;45244;-72
2023/10/04 08:21:56;;;;;;;2.38;1.38;;;20.90;53.20;;;;;;5108335;27;45431;-73
2023/10/04 08:24:24;;;;;;;3.95;1.20;;;20.90;53.30;;;;;;5108281;27;45357;-72
2023/10/04 08:26:51;;;;;;;1.50;0.90;;;20.90;53.20;;;;;;5108628;27;45367;-71
2023/10/04 08:29:23;;;;;;;1.25;1.08;;;20.90;53.20;;;;;;5107176;27;45205;-72
2023/10/04 08:31:50;;;;;;;1.58;1.00;;;21.00;53.20;;;;;;5108374;27;45271;-72
2023/10/04 08:34:18;;;;;;;1.55;1.02;;;21.00;53.20;;;;;;5108099;27;48042;-71
2023/10/04 08:36:45;;;;;;;1.83;1.10;;;21.00;53.20;;;;;;5108205;27;45218;-72
2023/10/04 08:39:13;;;;;;;1.55;1.23;;;21.00;53.10;;;;;;5108603;27;45268;-71
2023/10/04 08:41:42;;;;;;;1.80;1.23;;;21.00;53.10;;;;;;5108659;27;45278;-72
2023/10/04 08:44:09;;;;;;;1.55;1.10;;;21.00;53.10;;;;;;5108187;27;45330;-72
2023/10/04 08:46:37;;;;;;;1.35;1.20;;;21.00;52.90;;;;;;5108112;27;45188;-72
2023/10/04 08:49:04;;;;;;;3.28;1.10;;;21.10;52.90;;;;;;5108057;27;45289;-71
2023/10/04 08:51:36;;;;;;;1.38;0.90;;;21.10;52.80;;;;;;5108337;27;45402;-72
2023/10/04 08:54:13;;;;;;;1.27;1.08;;;21.10;53.00;;;;;;5108062;27;46594;-71
2023/10/04 08:56:45;;;;;;;0.80;0.80;;;21.10;52.80;;;;;;5107940;27;45323;-74
2023/10/04 08:59:12;;;;;;;1.48;1.00;;;21.10;52.90;;;;;;5108430;27;45117;-73
2023/10/04 09:01:41;;;;;;;1.75;1.13;;;21.20;52.90;;;;;;5108193;27;45569;-72
2023/10/04 09:04:07;;;;;;;2.13;1.10;;;21.10;52.70;;;;;;5107976;27;45659;-73
2023/10/04 09:06:35;;;;;;;1.40;1.10;;;21.20;53.00;;;;;;5107757;27;45282;-73
2023/10/04 09:09:03;;;;;;;1.10;0.90;;;21.20;52.90;;;;;;5107807;27;45338;-72
2023/10/04 09:11:32;;;;;;;1.08;0.80;;;21.20;52.80;;;;;;5107766;27;45419;-72
2023/10/04 09:14:00;;;;;;;1.00;0.90;;;21.30;52.80;;;;;;5107668;27;46477;-73
2023/10/04 09:16:28;;;;;;;1.73;1.10;;;21.30;52.90;;;;;;5108312;27;45223;-71
2023/10/04 09:19:09;;;;;;;2.58;1.35;;;21.30;52.90;;;;;;5108022;27;45285;-72
2023/10/04 09:21:38;;;;;;;2.40;1.15;;;21.30;52.70;;;;;;5107774;27;45203;-72
2023/10/04 09:24:09;;;;;;;0.98;0.98;;;21.30;52.70;;;;;;5107503;27;45316;-72
2023/10/04 09:26:37;;;;;;;4.32;1.10;;;21.30;52.70;;;;;;5107807;27;45311;-72
2023/10/04 09:29:12;;;;;;;2.22;1.17;;;21.30;52.70;;;;;;5107860;27;45398;-72
2023/10/04 09:31:50;;;;;;;1.67;1.08;;;21.40;52.70;;;;;;5107468;27;45335;-72
2023/10/04 09:34:17;;;;;;;1.23;1.13;;;21.40;52.60;;;;;;5107512;27;47248;-72
2023/10/04 09:36:44;;;;;;;1.20;1.10;;;21.40;52.70;;;;;;5107610;27;45248;-72
2023/10/04 09:39:13;;;;;;;1.65;1.10;;;21.40;52.60;;;;;;5107488;27;45342;-71
2023/10/04 09:41:42;;;;;;;1.90;1.30;;;21.40;52.50;;;;;;5110490;27;45468;-72
2023/10/04 09:44:26;;;;;;;1.00;0.90;;;21.40;52.60;;;;;;5110854;27;45246;-72
2023/10/04 09:46:57;;;;;;;1.73;0.98;;;21.50;52.70;;;;;;5110477;27;45244;-71
2023/10/04 09:49:25;;;;;;;6.55;1.48;;;21.50;53.30;;;;;;5110788;27;45199;-74
2023/10/04 09:51:53;;;;;;;5.25;1.17;;;21.60;53.60;;;;;;5111290;27;45321;-73
2023/10/04 09:54:20;;;;;;;2.97;1.40;;;21.60;53.60;;;;;;5111026;27;45781;-73
2023/10/04 09:56:49;;;;;;;7.93;1.27;;;21.60;53.60;;;;;;5110845;27;45197;-74
2023/10/04 09:59:19;;;;;;;1.08;0.85;;;21.70;53.60;;;;;;5110960;27;45289;-74
2023/10/04 10:01:54;;;;;;;2.38;1.08;;;21.70;53.40;;;;;;5111084;27;45624;-73
2023/10/04 10:04:25;;;;;;;3.80;1.20;;;21.80;53.40;;;;;;5110676;27;47524;-73
2023/10/04 10:07:06;;;;;;;3.15;1.23;;;21.80;53.40;;;;;;5110478;27;45271;-72
2023/10/04 10:09:34;;;;;;;5.18;1.10;;;21.90;53.20;;;;;;5110695;27;45314;-71
2023/10/04 10:12:02;;;;;;;2.53;1.00;;;22.00;53.20;;;;;;5107825;27;45261;-71
2023/10/04 10:14:29;;;;;;;7.97;1.77;;;22.10;53.10;;;;;;5110239;27;46449;-70
2023/10/04 10:16:57;;;;;;;11.73;1.40;;;22.10;52.80;;;;;;5110168;27;45198;-73
2023/10/04 10:19:26;;;;;;;6.10;1.60;;;22.20;53.10;;;;;;5110479;27;45177;-70
2023/10/04 10:22:08;;;;;;;2.10;1.30;;;22.30;52.80;;;;;;5110419;27;45435;-70
2023/10/04 10:24:35;;;;;;;2.83;1.42;;;22.40;52.50;;;;;;5110515;27;46662;-70
2023/10/04 10:27:03;;;;;;;1.40;1.30;;;22.50;52.40;;;;;;5112414;27;45289;-70
2023/10/04 10:29:31;;;;;;;1.35;1.17;;;22.60;52.00;;;;;;5112092;27;45334;-70
2023/10/04 10:32:01;;;;;;;2.08;1.08;;;22.70;51.80;;;;;;5112952;27;45306;-70
2023/10/04 10:34:30;;;;;;;3.17;1.20;;;22.70;52.10;;;;;;5112850;27;46476;-70
2023/10/04 10:37:17;;;;;;;1.90;1.25;;;22.90;51.90;;;;;;5113542;27;45224;-72
2023/10/04 10:39:46;;;;;;;9.57;1.48;;;23.00;51.40;;;;;;5114607;27;44648;-72
2023/10/04 10:42:15;;;;;;;7.50;1.95;;;23.00;51.50;;;;;;5115085;27;45286;-75
2023/10/04 10:44:43;;;;;;;19.95;2.35;;;23.10;51.90;;;;;;5115088;27;45321;-75
2023/10/04 10:47:19;;;;;;;6.57;1.80;;;23.20;50.40;;;;;;5114311;27;45427;-72
2023/10/04 10:50:12;;;;;;;3.05;1.27;;;23.20;49.80;;;;;;5112745;27;45307;-71
2023/10/04 10:52:41;;;;;;;2.67;1.50;;;23.20;48.70;;;;;;5111798;27;45154;-72
2023/10/04 10:55:14;;;;;;;0.93;0.93;;;23.10;48.80;;;;;;5111564;27;46980;-76
2023/10/04 10:57:43;;;;;;;2.50;1.40;;;23.20;48.80;;;;;;5111945;27;45279;-75
2023/10/04 11:00:19;;;;;;;7.30;1.80;;;23.20;48.70;;;;;;5111783;27;45256;-72
2023/10/04 11:02:48;;;;;;;3.45;1.42;;;23.30;48.70;;;;;;5111099;27;45266;-74
2023/10/04 11:05:16;;;;;;;5.30;1.58;;;23.30;48.80;;;;;;5110678;27;46404;-75
2023/10/04 11:07:43;;;;;;;3.72;1.33;;;23.30;49.20;;;;;;5110250;27;45315;-75
2023/10/04 11:10:13;;;;;;;3.90;1.55;;;23.20;48.70;;;;;;5110045;27;45287;-75
2023/10/04 11:12:42;;;;;;;8.02;1.40;;;23.10;48.50;;;;;;5109976;27;45207;-72
2023/10/04 11:15:10;;;;;;;4.25;1.25;;;23.20;49.20;;;;;;5109018;27;47192;-75
2023/10/04 11:17:38;;;;;;;5.72;1.90;;;23.10;50.00;;;;;;5109499;27;45240;-72
2023/10/04 11:20:09;;;;;;;10.85;1.80;;;23.00;49.60;;;;;;5109061;27;45276;-74
2023/10/04 11:22:36;;;;;;;4.90;1.38;;;23.00;49.30;;;;;;5110009;27;45172;-75
2023/10/04 11:25:03;;;;;;;1.85;1.40;;;23.10;48.70;;;;;;5108943;27;45201;-71
2023/10/04 11:27:30;;;;;;;1.92;1.20;;;23.10;49.30;;;;;;5109043;27;45324;-75
2023/10/04 11:29:57;;;;;;;5.90;1.63;;;22.90;48.50;;;;;;5108856;27;45301;-71
2023/10/04 11:32:24;;;;;;;4.15;1.40;;;22.80;49.20;;;;;;5109296;27;45350;-71
2023/10/04 11:34:51;;;;;;;2.13;1.17;;;22.80;49.20;;;;;;5108609;27;45160;-72
2023/10/04 11:37:19;;;;;;;3.17;1.33;;;22.80;49.00;;;;;;5108918;27;45237;-72
2023/10/04 11:39:46;;;;;;;2.35;1.52;;;22.80;48.80;;;;;;5109567;27;45346;-69
2023/10/04 11:42:17;;;;;;;2.83;1.23;;;22.80;48.40;;;;;;5108604;27;45529;-74
2023/10/04 11:44:49;;;;;;;2.97;1.38;;;23.00;48.40;;;;;;5108373;27;46436;-75
2023/10/04 11:47:20;;;;;;;3.05;1.20;;;23.20;48.60;;;;;;5108807;27;45329;-74
2023/10/04 11:49:58;;;;;;;1.77;1.23;;;23.30;47.70;;;;;;5108541;27;45472;-72
2023/10/04 11:52:29;;;;;;;3.03;1.50;;;23.30;46.40;;;;;;5108646;27;45293;-73
2023/10/04 11:54:55;;;;;;;1.67;1.20;;;23.40;46.40;;;;;;5108581;27;46936;-75
2023/10/04 11:57:25;;;;;;;2.95;1.73;;;23.60;46.20;;;;;;5108586;27;45363;-72
2023/10/04 11:59:52;;;;;;;2.80;1.27;;;23.60;45.60;;;;;;5109284;27;45168;-73
2023/10/04 12:02:22;;;;;;;2.50;1.15;;;23.40;46.10;;;;;;5109104;27;45191;-73
2023/10/04 12:04:49;;;;;;;1.33;1.23;;;23.30;46.30;;;;;;5109166;27;46579;-72
2023/10/04 12:07:16;;;;;;;2.03;1.30;;;23.40;45.70;;;;;;5108643;27;45301;-72
2023/10/04 12:09:44;;;;;;;1.92;1.10;;;23.30;45.60;;;;;;5108476;27;45257;-72
2023/10/04 12:12:16;;;;;;;3.85;1.17;;;23.50;45.80;;;;;;5109883;27;45258;-73
2023/10/04 12:14:43;;;;;;;1.60;1.27;;;23.30;45.10;;;;;;5108354;27;45195;-73
2023/10/04 12:17:10;;;;;;;1.67;1.30;;;23.30;45.40;;;;;;5108464;27;45189;-73
2023/10/04 12:19:37;;;;;;;2.53;1.20;;;23.20;44.90;;;;;;5108263;27;45303;-73
2023/10/04 12:22:08;;;;;;;2.55;0.98;;;23.30;45.00;;;;;;5110471;27;45290;-73
2023/10/04 12:24:35;;;;;;;1.52;1.10;;;23.30;44.90;;;;;;5108410;27;46340;-73
2023/10/04 12:27:07;;;;;;;2.90;1.23;;;23.30;44.30;;;;;;5107872;27;45329;-74
2023/10/04 12:29:34;;;;;;;1.88;1.30;;;23.30;44.40;;;;;;5113474;27;44754;-74
2023/10/04 12:32:01;;;;;;;2.67;1.30;;;23.50;45.00;;;;;;5114010;27;45406;-73
2023/10/04 12:34:29;;;;;;;1.98;1.00;;;23.60;43.60;;;;;;5126871;27;45305;-72
2023/10/04 12:36:56;;;;;;;2.08;1.40;;;23.50;43.00;;;;;;5128729;27;45177;-73
2023/10/04 12:39:23;;;;;;;4.03;1.40;;;23.50;42.90;;;;;;5128778;27;45224;-71
2023/10/04 12:41:50;;;;;;;1.45;1.00;;;23.60;43.60;;;;;;5128623;27;45270;-72
2023/10/04 12:44:19;;;;;;;2.47;1.10;;;23.50;42.80;;;;;;5128749;27;46742;-73
2023/10/04 12:46:47;;;;;;;2.40;1.10;;;23.50;42.60;;;;;;5128973;27;45373;-74
2023/10/04 12:49:15;;;;;;;1.80;1.15;;;23.30;42.70;;;;;;5128972;27;45184;-73
2023/10/04 12:51:42;;;;;;;2.08;1.40;;;23.20;42.50;;;;;;5128846;27;45537;-73
2023/10/04 12:54:09;;;;;;;2.22;1.25;;;23.10;42.30;;;;;;5128307;27;46472;-74
2023/10/04 12:56:36;;;;;;;3.63;1.30;;;23.20;42.60;;;;;;5128630;27;45146;-74
2023/10/04 12:59:04;;;;;;;2.30;1.25;;;23.20;42.70;;;;;;5128329;27;45186;-73